x

South Huron - 43nm East Of Oscoda, Mi (45008) Wave Buoy

5:50pm - Sun 28th Aug 2016 All times are CDT. -5 hours from GMT.

  • Sig Wave height 1.6ft
  • Swell Direction
  • Peak Period 4s
  • Average Period 4s
  • Wind
    7mph, 9mph gusts
  • Sea Temp 72°f
  • Air Temp 71°f
  • Sea Pressure 1021.1mb
  • South Huron - 43nm East Of Oscoda, Mi
  • South Huron - 43nm East Of Oscoda, Mi

More Historic Weather Station data

Upgrade to MSW Pro to gain access to the past 30 days of data for over 8000 Wavebouys and Weather Stations around the globe.

Join Pro

Comparision Forecast

View Surf forecast
   
Sun 08/28 5:50pm 1.6ft 4s 4s 7 9 mph 1021.1mb 72f 71f
4:50pm 1ft 3s 3s 4 7 mph 1021.1mb 72f 71f
3:50pm 1ft 3s 3s 4
mph
1021.2mb 72f 71f
2:50pm 1ft 3s 3s 9 11 mph 1020.7mb 72f 71f
1:50pm 1.3ft 3s 3s 7
mph
1020.9mb 71f 71f
12:50pm 1.3ft 4s 3s 9 11 mph 1021.1mb 71f 72f
11:50am 1.3ft 3s 3s 11
mph
1020.7mb 71f 72f
10:50am 1.3ft 4s 3s 13 16 mph 1020.5mb 71f 72f
9:50am 1.6ft 4s 3s 11 13 mph 1019.9mb 71f 72f
8:50am 1.3ft 4s 3s 11
mph
1019.5mb 71f 72f
7:50am 1.6ft 4s 3s 9
mph
1019.3mb 71f 72f
6:50am 1.6ft 4s 3s 11
mph
1018.8mb 71f 72f
5:50am 1.6ft 4s 4s 11 13 mph 1018.2mb 71f 72f
4:50am 1.6ft 5s 4s 9 11 mph 1017.9mb 71f 71f
2:50am 2ft 5s 4s 11 13 mph 1017.9mb 71f 71f
1:50am 2.5ft 5s 4s 11 13 mph 1017.9mb 71f 71f
12:50am 2.5ft 5s 4s 16 18 mph 1017.9mb 71f 70f
Sat 08/27 11:50pm 3ft 5s 4s 16 18 mph 1018mb 71f 71f
9:50pm 2.5ft 4s 4s 16 18 mph 1017.9mb 71f 72f
8:50pm 1.3ft 3s 3s 13 18 mph 1017.5mb 71f 73f
7:50pm 1.3ft 3s 3s 13 16 mph 1017.2mb 71f 73f
6:50pm 1.6ft 4s 3s 11 13 mph 1017.2mb 71f 72f
5:50pm 1.6ft 4s 3s 13 16 mph 1017.9mb 71f 71f
4:50pm 1.3ft 4s 3s 16 18 mph 1018.2mb 71f 71f
3:50pm 1.6ft 4s 4s 13 16 mph 1018.5mb 71f 71f
2:50pm 1.6ft 5s 4s 13 16 mph 1019mb 71f 70f
1:50pm 2ft 4s 4s 7 9 mph 1020.5mb 71f 70f
12:50pm 1.6ft 4s 3s 9 11 mph 1020.5mb 71f 71f
11:50am 1.6ft 4s 3s 7 9 mph 1020.5mb 71f 72f
10:50am 1.6ft 3s 3s 11 13 mph 1020.9mb 71f 72f
9:50am 1.3ft 3s 3s 9 11 mph 1021.1mb 71f 71f
8:50am 1.3ft 3s 3s 11 13 mph 1020.8mb 71f 70f
7:50am 1.6ft 3s 3s 13 16 mph 1020.7mb 71f 70f
6:50am 1.3ft 3s 3s 16 18 mph 1020.7mb 71f 71f
5:50am 1.3ft 3s 3s 16 18 mph 1020.6mb 71f 71f
4:50am 0.7ft  -  3s 13 16 mph 1020.6mb 71f 71f
3:50am 0.7ft  -  3s 11 13 mph 1020.8mb 71f 71f
2:50am 0.7ft  -  3s 9 11 mph 1020.9mb 71f 71f
1:50am 0.7ft  -  3s 11 13 mph 1020.4mb 71f 71f
12:50am 0.7ft  -  3s 11 13 mph 1020.3mb 71f 71f
Fri 08/26 11:50pm 0.7ft  -  3s 9 11 mph 1020.5mb 71f 71f
10:50pm 0.7ft  -  3s 7 9 mph 1020.7mb 71f 71f
9:50pm 0.7ft  -  3s 9 11 mph 1020.2mb 71f 71f
8:50pm 0.7ft  -  3s 9 11 mph 1019.9mb 71f 71f
7:50pm 0.7ft  -  3s 9
mph
1019.3mb 72f 71f
6:50pm 1ft 4s 3s 9
mph
1019.2mb 72f 71f
5:50pm 1ft 4s 4s 7 9 mph 1018.9mb 72f 71f
4:50pm 1ft 4s 4s 7
mph
1018.8mb 73f 71f
3:50pm 1.3ft 4s 4s 2
mph
1019mb 73f 71f
2:50pm 1.3ft 4s 4s 2
mph
1019.1mb 72f 71f
1:50pm 1.6ft 4s 4s 2 4 mph 1019.2mb 72f 70f
12:50pm 1.6ft 5s 4s 4 7 mph 1019mb 71f 69f
11:50am 1.6ft 4s 4s 9
mph
1019.1mb 71f 69f
10:50am 2ft 4s 4s 9 11 mph 1019.1mb 71f 69f
9:50am 2ft 4s 4s 11 13 mph 1018.7mb 71f 69f
8:50am 2ft 4s 4s 13 16 mph 1017.8mb 71f 69f
7:50am 2.5ft 4s 4s 11 16 mph 1017.3mb 71f 69f
6:50am 2.5ft 4s 4s 16 18 mph 1016.8mb 71f 69f
5:50am 2ft 4s 3s 13 16 mph 1016.3mb 71f 70f
4:50am 1ft 3s 3s 16 18 mph 1015.7mb 71f 71f
3:50am 1ft 3s 3s 11
mph
1015.5mb 71f 72f
2:50am 0.7ft  -  3s 9
mph
1015.3mb 71f 71f
1:50am 1ft 3s 3s 7 9 mph 1015.1mb 71f 72f
12:50am 1ft 3s 3s 11 13 mph 1014.6mb 71f 73f
Thu 08/25 11:50pm 0.7ft  -  3s 11 13 mph 1014.1mb 71f 71f
10:50pm 0.7ft  -  3s 11 16 mph 1013.3mb 72f 72f
9:50pm 0.7ft  -  3s 9 11 mph 1013mb 72f 74f
8:50pm 0.3ft  -  3s 9 11 mph 1013mb 72f 73f
7:50pm 0.7ft  -  3s 7
mph
1012.8mb 72f 74f
6:50pm 0.7ft  -  3s 4
mph
1012.4mb 73f 73f
5:50pm 0.7ft  -  3s 4
mph
1012.2mb 73f 74f
4:50pm 0.7ft  -  3s 4
mph
1012mb 73f 74f
3:50pm 0.7ft  -  3s 4
mph
1012.2mb 73f 74f
2:50pm 0.7ft  -  3s 4 7 mph 1012.1mb 72f 73f
1:50pm 0.7ft  -  3s 4 7 mph 1012.7mb 72f 73f
12:50pm 1ft 3s 3s 4 7 mph 1012.6mb 71f 72f
11:50am 1ft 3s 3s 4
mph
1012.4mb 71f 71f
10:50am 1ft 3s 3s 7
mph
1012.5mb 71f 71f
9:50am 1.3ft 3s 3s 9 11 mph 1013.1mb 71f 71f
8:50am 1.6ft 4s 3s 11 13 mph 1012.9mb 71f 71f
7:50am 1.6ft 4s 3s 11 13 mph 1012.4mb 71f 71f
6:50am 1.6ft 3s 3s 11 13 mph 1012.2mb 71f 72f
5:50am 1.6ft 3s 3s 11 13 mph 1012.1mb 71f 71f
4:50am 1.6ft 3s 3s 11 13 mph 1011.9mb 71f 72f
3:50am 1.6ft 4s 3s 13 16 mph 1011.7mb 71f 72f
2:50am 1.6ft 4s 4s 9 11 mph 1011.1mb 71f 72f
1:50am 2ft 5s 4s 11
mph
1010.6mb 71f 72f
12:50am 2ft 5s 4s 11
mph
1010.9mb 71f 72f